sensor_id;sensor_type;location;lat;lon;timestamp;pressure;altitude;pressure_sealevel;temperature;humidity
51603;BME280;37954;51.980;5.850;2023-03-14T00:01:33;98489.25;;;12.31;79.07
51603;BME280;37954;51.980;5.850;2023-03-14T00:05:45;98518.53;;;12.57;79.22
51603;BME280;37954;51.980;5.850;2023-03-14T00:09:57;98508.13;;;12.50;79.18
51603;BME280;37954;51.980;5.850;2023-03-14T00:14:11;98522.84;;;12.58;79.11
51603;BME280;37954;51.980;5.850;2023-03-14T00:18:23;98521.88;;;12.48;79.74
51603;BME280;37954;51.980;5.850;2023-03-14T00:22:38;98538.50;;;12.32;81.99
51603;BME280;37954;51.980;5.850;2023-03-14T00:26:52;98534.94;;;11.94;83.32
51603;BME280;37954;51.980;5.850;2023-03-14T00:31:08;98562.94;;;11.93;84.30
51603;BME280;37954;51.980;5.850;2023-03-14T00:35:21;98531.91;;;11.71;85.56
51603;BME280;37954;51.980;5.850;2023-03-14T00:39:33;98533.47;;;11.48;85.61
51603;BME280;37954;51.980;5.850;2023-03-14T00:43:45;98531.69;;;11.39;85.42
51603;BME280;37954;51.980;5.850;2023-03-14T00:47:57;98546.56;;;11.26;85.43
51603;BME280;37954;51.980;5.850;2023-03-14T00:52:09;98562.09;;;11.34;85.55
51603;BME280;37954;51.980;5.850;2023-03-14T00:56:21;98549.25;;;11.26;85.47
51603;BME280;37954;51.980;5.850;2023-03-14T01:00:33;98533.78;;;11.13;85.13
51603;BME280;37954;51.980;5.850;2023-03-14T01:04:47;98535.50;;;10.99;85.54
51603;BME280;37954;51.980;5.850;2023-03-14T01:09:00;98513.91;;;10.80;85.42
51603;BME280;37954;51.980;5.850;2023-03-14T01:13:11;98547.31;;;11.03;85.79
51603;BME280;37954;51.980;5.850;2023-03-14T01:17:23;98551.25;;;11.10;85.97
51603;BME280;37954;51.980;5.850;2023-03-14T01:21:35;98551.31;;;11.05;85.92
51603;BME280;37954;51.980;5.850;2023-03-14T01:25:48;98513.31;;;10.88;85.75
51603;BME280;37954;51.980;5.850;2023-03-14T01:30:00;98544.88;;;11.06;85.54
51603;BME280;37954;51.980;5.850;2023-03-14T01:34:13;98534.97;;;11.02;84.73
51603;BME280;37954;51.980;5.850;2023-03-14T01:38:28;98548.66;;;11.00;84.68
51603;BME280;37954;51.980;5.850;2023-03-14T01:47:24;98572.28;;;11.03;84.46
51603;BME280;37954;51.980;5.850;2023-03-14T01:51:53;98576.59;;;10.99;85.17
51603;BME280;37954;51.980;5.850;2023-03-14T01:56:12;98562.50;;;10.78;85.78
51603;BME280;37954;51.980;5.850;2023-03-14T02:00:25;98557.13;;;10.78;86.54
51603;BME280;37954;51.980;5.850;2023-03-14T02:04:38;98555.00;;;10.75;86.45
51603;BME280;37954;51.980;5.850;2023-03-14T02:08:51;98532.88;;;10.55;87.65
51603;BME280;37954;51.980;5.850;2023-03-14T02:13:08;98525.91;;;10.43;88.27
51603;BME280;37954;51.980;5.850;2023-03-14T02:17:40;98542.31;;;10.42;89.20
51603;BME280;37954;51.980;5.850;2023-03-14T02:22:11;98536.13;;;10.41;89.33
51603;BME280;37954;51.980;5.850;2023-03-14T02:30:45;98530.03;;;10.26;90.28
51603;BME280;37954;51.980;5.850;2023-03-14T02:34:59;98527.09;;;10.27;91.18
51603;BME280;37954;51.980;5.850;2023-03-14T02:39:17;98550.94;;;10.39;91.31
51603;BME280;37954;51.980;5.850;2023-03-14T02:43:33;98522.03;;;10.21;91.36
51603;BME280;37954;51.980;5.850;2023-03-14T02:47:57;98518.25;;;10.22;91.40
51603;BME280;37954;51.980;5.850;2023-03-14T02:52:13;98534.25;;;10.42;91.90
51603;BME280;37954;51.980;5.850;2023-03-14T02:56:26;98522.97;;;10.40;92.27
51603;BME280;37954;51.980;5.850;2023-03-14T03:00:39;98522.97;;;10.45;92.29
51603;BME280;37954;51.980;5.850;2023-03-14T03:04:53;98526.72;;;10.49;91.95
51603;BME280;37954;51.980;5.850;2023-03-14T03:09:04;98527.25;;;10.51;91.97
51603;BME280;37954;51.980;5.850;2023-03-14T03:13:17;98521.06;;;10.56;91.35
51603;BME280;37954;51.980;5.850;2023-03-14T03:17:33;98508.19;;;10.48;91.22
51603;BME280;37954;51.980;5.850;2023-03-14T03:21:45;98499.41;;;10.37;90.78
51603;BME280;37954;51.980;5.850;2023-03-14T03:25:57;98509.53;;;10.45;90.93
51603;BME280;37954;51.980;5.850;2023-03-14T03:30:09;98486.00;;;10.32;90.73
51603;BME280;37954;51.980;5.850;2023-03-14T03:34:21;98484.38;;;10.36;90.28
51603;BME280;37954;51.980;5.850;2023-03-14T03:38:38;98488.09;;;10.40;90.38
51603;BME280;37954;51.980;5.850;2023-03-14T03:42:50;98474.19;;;10.38;90.04
51603;BME280;37954;51.980;5.850;2023-03-14T03:47:02;98471.97;;;10.45;89.89
51603;BME280;37954;51.980;5.850;2023-03-14T03:51:15;98500.06;;;10.58;89.48
51603;BME280;37954;51.980;5.850;2023-03-14T03:55:28;98484.56;;;10.50;89.37
51603;BME280;37954;51.980;5.850;2023-03-14T03:59:40;98498.25;;;10.53;89.20
51603;BME280;37954;51.980;5.850;2023-03-14T04:03:52;98483.75;;;10.49;88.94
51603;BME280;37954;51.980;5.850;2023-03-14T04:08:04;98471.19;;;10.44;88.73
51603;BME280;37954;51.980;5.850;2023-03-14T04:12:17;98485.56;;;10.59;88.31
51603;BME280;37954;51.980;5.850;2023-03-14T04:16:46;98479.41;;;10.58;88.09
51603;BME280;37954;51.980;5.850;2023-03-14T04:21:01;98477.84;;;10.52;87.80
51603;BME280;37954;51.980;5.850;2023-03-14T04:25:23;98474.56;;;10.60;87.71
51603;BME280;37954;51.980;5.850;2023-03-14T04:29:39;98466.19;;;10.67;87.67
51603;BME280;37954;51.980;5.850;2023-03-14T04:33:51;98465.44;;;10.61;87.10
51603;BME280;37954;51.980;5.850;2023-03-14T04:38:11;98442.72;;;10.49;87.03
51603;BME280;37954;51.980;5.850;2023-03-14T04:42:27;98448.84;;;10.54;86.82
51603;BME280;37954;51.980;5.850;2023-03-14T04:46:39;98481.47;;;10.71;86.93
51603;BME280;37954;51.980;5.850;2023-03-14T04:50:55;98436.78;;;10.52;86.49
51603;BME280;37954;51.980;5.850;2023-03-14T04:55:08;98462.19;;;10.64;86.57
51603;BME280;37954;51.980;5.850;2023-03-14T04:59:20;98448.00;;;10.59;86.01
51603;BME280;37954;51.980;5.850;2023-03-14T05:03:34;98464.03;;;10.69;86.02
51603;BME280;37954;51.980;5.850;2023-03-14T05:08:01;98433.81;;;10.53;86.62
51603;BME280;37954;51.980;5.850;2023-03-14T05:12:45;98438.06;;;10.59;86.88
51603;BME280;37954;51.980;5.850;2023-03-14T05:17:16;98452.25;;;10.65;86.38
51603;BME280;37954;51.980;5.850;2023-03-14T05:21:50;98452.28;;;10.60;86.26
51603;BME280;37954;51.980;5.850;2023-03-14T05:26:19;98452.53;;;10.63;86.78
51603;BME280;37954;51.980;5.850;2023-03-14T05:30:47;98454.16;;;10.59;86.83
51603;BME280;37954;51.980;5.850;2023-03-14T05:35:19;98427.44;;;10.44;86.74
51603;BME280;37954;51.980;5.850;2023-03-14T05:39:59;98432.25;;;10.47;86.95
51603;BME280;37954;51.980;5.850;2023-03-14T05:44:29;98444.00;;;10.56;87.26
51603;BME280;37954;51.980;5.850;2023-03-14T05:49:17;98449.88;;;10.58;87.51
51603;BME280;37954;51.980;5.850;2023-03-14T05:53:36;98468.16;;;10.56;87.81
51603;BME280;37954;51.980;5.850;2023-03-14T05:58:17;98448.88;;;10.49;88.15
51603;BME280;37954;51.980;5.850;2023-03-14T06:02:40;98423.47;;;10.36;88.55
51603;BME280;37954;51.980;5.850;2023-03-14T06:07:02;98431.53;;;10.36;88.69
51603;BME280;37954;51.980;5.850;2023-03-14T06:11:15;98434.47;;;10.35;89.11
51603;BME280;37954;51.980;5.850;2023-03-14T06:15:27;98417.63;;;10.24;89.49
51603;BME280;37954;51.980;5.850;2023-03-14T06:19:40;98432.28;;;10.42;89.80
51603;BME280;37954;51.980;5.850;2023-03-14T06:23:55;98455.06;;;10.50;89.95
51603;BME280;37954;51.980;5.850;2023-03-14T06:28:08;98437.97;;;10.35;90.40
51603;BME280;37954;51.980;5.850;2023-03-14T06:32:20;98428.63;;;10.28;90.81
51603;BME280;37954;51.980;5.850;2023-03-14T06:36:36;98412.56;;;10.18;91.13
51603;BME280;37954;51.980;5.850;2023-03-14T06:40:47;98443.53;;;10.44;91.46
51603;BME280;37954;51.980;5.850;2023-03-14T06:45:06;98441.34;;;10.51;92.14
51603;BME280;37954;51.980;5.850;2023-03-14T06:49:19;98435.53;;;10.39;92.38
51603;BME280;37954;51.980;5.850;2023-03-14T06:53:34;98432.56;;;10.40;92.58
51603;BME280;37954;51.980;5.850;2023-03-14T06:57:47;98428.78;;;10.41;92.77
51603;BME280;37954;51.980;5.850;2023-03-14T07:01:59;98458.72;;;10.59;93.03
51603;BME280;37954;51.980;5.850;2023-03-14T07:06:10;98440.72;;;10.64;93.46
51603;BME280;37954;51.980;5.850;2023-03-14T07:10:22;98458.13;;;10.72;93.59
51603;BME280;37954;51.980;5.850;2023-03-14T07:14:34;98458.03;;;10.82;93.41
51603;BME280;37954;51.980;5.850;2023-03-14T07:18:46;98463.72;;;10.75;93.30
51603;BME280;37954;51.980;5.850;2023-03-14T07:22:59;98498.59;;;10.75;93.11
51603;BME280;37954;51.980;5.850;2023-03-14T07:27:29;98522.69;;;10.52;92.74
51603;BME280;37954;51.980;5.850;2023-03-14T07:31:41;98531.63;;;10.32;92.80
51603;BME280;37954;51.980;5.850;2023-03-14T07:35:54;98533.34;;;9.97;92.47
51603;BME280;37954;51.980;5.850;2023-03-14T07:40:07;98590.16;;;10.04;91.53
51603;BME280;37954;51.980;5.850;2023-03-14T07:44:21;98593.19;;;9.77;91.95
51603;BME280;37954;51.980;5.850;2023-03-14T07:48:32;98602.84;;;9.58;91.17
51603;BME280;37954;51.980;5.850;2023-03-14T07:52:44;98626.69;;;9.55;91.34
51603;BME280;37954;51.980;5.850;2023-03-14T07:56:56;98613.03;;;9.36;91.59
51603;BME280;37954;51.980;5.850;2023-03-14T08:01:12;98624.00;;;9.19;91.76
51603;BME280;37954;51.980;5.850;2023-03-14T08:05:23;98675.19;;;9.28;91.79
51603;BME280;37954;51.980;5.850;2023-03-14T08:09:41;98674.34;;;9.07;91.66
51603;BME280;37954;51.980;5.850;2023-03-14T08:13:53;98681.53;;;8.96;91.95
51603;BME280;37954;51.980;5.850;2023-03-14T08:18:05;98695.72;;;8.92;92.16
51603;BME280;37954;51.980;5.850;2023-03-14T08:22:17;98708.84;;;9.03;91.86
51603;BME280;37954;51.980;5.850;2023-03-14T08:26:30;98727.59;;;8.98;91.72
51603;BME280;37954;51.980;5.850;2023-03-14T08:30:42;98737.28;;;9.10;92.07
51603;BME280;37954;51.980;5.850;2023-03-14T08:34:58;98748.28;;;9.18;91.92
51603;BME280;37954;51.980;5.850;2023-03-14T08:39:09;98790.63;;;9.16;90.94
51603;BME280;37954;51.980;5.850;2023-03-14T08:43:21;98805.63;;;8.70;89.04
51603;BME280;37954;51.980;5.850;2023-03-14T08:47:33;98832.03;;;8.56;88.94
51603;BME280;37954;51.980;5.850;2023-03-14T08:51:45;98841.06;;;8.45;89.01
51603;BME280;37954;51.980;5.850;2023-03-14T08:55:57;98863.81;;;8.48;88.72
51603;BME280;37954;51.980;5.850;2023-03-14T09:00:09;98883.00;;;8.40;88.20
51603;BME280;37954;51.980;5.850;2023-03-14T09:04:27;98913.22;;;8.40;87.63
51603;BME280;37954;51.980;5.850;2023-03-14T09:08:39;98928.47;;;8.71;87.80
51603;BME280;37954;51.980;5.850;2023-03-14T09:12:50;98913.53;;;8.76;86.91
51603;BME280;37954;51.980;5.850;2023-03-14T09:17:06;98962.25;;;8.78;85.33
51603;BME280;37954;51.980;5.850;2023-03-14T09:21:21;98984.00;;;8.54;84.01
51603;BME280;37954;51.980;5.850;2023-03-14T09:25:32;99002.16;;;8.52;83.88
51603;BME280;37954;51.980;5.850;2023-03-14T09:29:44;99016.94;;;8.87;83.65
51603;BME280;37954;51.980;5.850;2023-03-14T09:33:56;99036.53;;;8.92;81.92
51603;BME280;37954;51.980;5.850;2023-03-14T09:38:08;99067.66;;;8.98;80.93
51603;BME280;37954;51.980;5.850;2023-03-14T09:42:23;99054.28;;;9.30;80.50
51603;BME280;37954;51.980;5.850;2023-03-14T09:46:37;99107.91;;;9.72;78.97
51603;BME280;37954;51.980;5.850;2023-03-14T09:50:55;99129.34;;;9.67;77.00
51603;BME280;37954;51.980;5.850;2023-03-14T09:55:19;99137.63;;;9.66;75.42
51603;BME280;37954;51.980;5.850;2023-03-14T09:59:33;99152.78;;;9.87;73.77
51603;BME280;37954;51.980;5.850;2023-03-14T10:03:46;99181.81;;;9.95;73.30
51603;BME280;37954;51.980;5.850;2023-03-14T10:07:58;99203.63;;;9.72;73.11
51603;BME280;37954;51.980;5.850;2023-03-14T10:12:11;99182.41;;;9.70;73.47
51603;BME280;37954;51.980;5.850;2023-03-14T10:16:29;99228.97;;;10.23;73.08
51603;BME280;37954;51.980;5.850;2023-03-14T10:20:44;99224.09;;;10.15;71.64
51603;BME280;37954;51.980;5.850;2023-03-14T10:25:05;99229.09;;;10.01;71.14
51603;BME280;37954;51.980;5.850;2023-03-14T10:29:21;99255.94;;;10.06;70.75
51603;BME280;37954;51.980;5.850;2023-03-14T10:33:38;99267.44;;;10.02;70.33
51603;BME280;37954;51.980;5.850;2023-03-14T10:38:01;99261.22;;;9.96;69.31
51603;BME280;37954;51.980;5.850;2023-03-14T10:42:28;99321.34;;;10.00;68.85
51603;BME280;37954;51.980;5.850;2023-03-14T10:46:43;99347.22;;;10.38;69.43
51603;BME280;37954;51.980;5.850;2023-03-14T10:55:40;99370.69;;;10.58;67.32
51603;BME280;37954;51.980;5.850;2023-03-14T10:59:55;99405.81;;;10.20;68.40
51603;BME280;37954;51.980;5.850;2023-03-14T11:04:59;99402.22;;;9.43;70.15
51603;BME280;37954;51.980;5.850;2023-03-14T11:21:36;99511.81;;;10.00;73.08
51603;BME280;37954;51.980;5.850;2023-03-14T11:30:41;99531.88;;;9.98;69.46
51603;BME280;37954;51.980;5.850;2023-03-14T11:34:56;99563.94;;;10.09;69.33
51603;BME280;37954;51.980;5.850;2023-03-14T11:39:17;99559.75;;;10.35;67.70
51603;BME280;37954;51.980;5.850;2023-03-14T11:43:33;99568.13;;;10.39;67.01
51603;BME280;37954;51.980;5.850;2023-03-14T11:47:59;99550.50;;;10.26;65.30
51603;BME280;37954;51.980;5.850;2023-03-14T11:56:47;99608.22;;;11.26;61.93
51603;BME280;37954;51.980;5.850;2023-03-14T12:01:07;99614.88;;;11.82;60.20
51603;BME280;37954;51.980;5.850;2023-03-14T12:09:55;99638.66;;;12.43;54.60
51603;BME280;37954;51.980;5.850;2023-03-14T12:18:37;99631.63;;;11.90;50.90
51603;BME280;37954;51.980;5.850;2023-03-14T12:23:02;99676.28;;;11.59;50.47
51603;BME280;37954;51.980;5.850;2023-03-14T12:45:25;99707.16;;;11.29;45.97
51603;BME280;37954;51.980;5.850;2023-03-14T12:49:37;99722.78;;;11.32;46.49
51603;BME280;37954;51.980;5.850;2023-03-14T12:54:15;99743.09;;;10.96;46.30
51603;BME280;37954;51.980;5.850;2023-03-14T12:59:04;99734.94;;;10.91;47.12
51603;BME280;37954;51.980;5.850;2023-03-14T13:07:35;99763.66;;;10.86;47.00
51603;BME280;37954;51.980;5.850;2023-03-14T13:11:47;99775.75;;;11.10;47.58
51603;BME280;37954;51.980;5.850;2023-03-14T13:16:00;99759.81;;;10.81;46.66
51603;BME280;37954;51.980;5.850;2023-03-14T13:21:05;99784.19;;;10.97;46.01
51603;BME280;37954;51.980;5.850;2023-03-14T13:24:59;99807.56;;;10.96;46.19
51603;BME280;37954;51.980;5.850;2023-03-14T13:29:24;99807.44;;;10.86;46.15
51603;BME280;37954;51.980;5.850;2023-03-14T13:33:40;99816.50;;;10.63;45.99
51603;BME280;37954;51.980;5.850;2023-03-14T13:37:55;99845.00;;;10.64;45.74
51603;BME280;37954;51.980;5.850;2023-03-14T13:42:25;99840.22;;;10.33;45.10
51603;BME280;37954;51.980;5.850;2023-03-14T13:46:38;99872.91;;;10.01;44.36
51603;BME280;37954;51.980;5.850;2023-03-14T13:50:53;99871.13;;;10.07;45.27
51603;BME280;37954;51.980;5.850;2023-03-14T13:55:13;99887.63;;;10.27;45.20
51603;BME280;37954;51.980;5.850;2023-03-14T13:59:27;99903.94;;;10.54;45.55
51603;BME280;37954;51.980;5.850;2023-03-14T14:03:41;99901.63;;;10.63;44.90
51603;BME280;37954;51.980;5.850;2023-03-14T14:07:54;99926.22;;;10.71;44.46
51603;BME280;37954;51.980;5.850;2023-03-14T14:12:12;99924.28;;;10.22;43.74
51603;BME280;37954;51.980;5.850;2023-03-14T14:16:29;99947.94;;;10.25;43.22
51603;BME280;37954;51.980;5.850;2023-03-14T14:20:43;99974.53;;;9.98;43.43
51603;BME280;37954;51.980;5.850;2023-03-14T14:24:58;99976.50;;;10.02;44.12
51603;BME280;37954;51.980;5.850;2023-03-14T14:29:31;99962.31;;;9.78;43.75
51603;BME280;37954;51.980;5.850;2023-03-14T14:34:02;100005.38;;;9.60;44.04
51603;BME280;37954;51.980;5.850;2023-03-14T14:38:16;100023.44;;;9.18;42.74
51603;BME280;37954;51.980;5.850;2023-03-14T14:42:31;100002.75;;;8.84;42.53
51603;BME280;37954;51.980;5.850;2023-03-14T14:46:43;100016.16;;;8.84;42.81
51603;BME280;37954;51.980;5.850;2023-03-14T14:51:03;100026.75;;;8.79;43.07
51603;BME280;37954;51.980;5.850;2023-03-14T14:55:19;100045.06;;;8.82;43.63
51603;BME280;37954;51.980;5.850;2023-03-14T14:59:31;100055.69;;;9.00;44.12
51603;BME280;37954;51.980;5.850;2023-03-14T15:03:47;100048.41;;;8.77;42.95
51603;BME280;37954;51.980;5.850;2023-03-14T15:07:59;100080.19;;;8.85;42.89
51603;BME280;37954;51.980;5.850;2023-03-14T15:12:11;100099.44;;;8.94;43.29
51603;BME280;37954;51.980;5.850;2023-03-14T15:16:30;100113.66;;;8.94;43.46
51603;BME280;37954;51.980;5.850;2023-03-14T15:20:43;100124.75;;;8.98;43.76
51603;BME280;37954;51.980;5.850;2023-03-14T15:24:55;100128.69;;;8.95;43.69
51603;BME280;37954;51.980;5.850;2023-03-14T15:29:08;100137.72;;;9.13;44.34
51603;BME280;37954;51.980;5.850;2023-03-14T15:33:24;100124.59;;;8.93;44.69
51603;BME280;37954;51.980;5.850;2023-03-14T15:37:36;100142.28;;;8.82;45.49
51603;BME280;37954;51.980;5.850;2023-03-14T15:41:48;100163.59;;;8.89;45.64
51603;BME280;37954;51.980;5.850;2023-03-14T15:46:00;100154.38;;;8.85;46.41
51603;BME280;37954;51.980;5.850;2023-03-14T15:50:15;100178.13;;;8.81;46.38
51603;BME280;37954;51.980;5.850;2023-03-14T15:54:27;100191.91;;;8.48;46.42
51603;BME280;37954;51.980;5.850;2023-03-14T15:58:42;100192.94;;;8.47;46.87
51603;BME280;37954;51.980;5.850;2023-03-14T16:02:57;100221.03;;;8.56;47.02
51603;BME280;37954;51.980;5.850;2023-03-14T16:07:09;100217.16;;;8.52;47.14
51603;BME280;37954;51.980;5.850;2023-03-14T16:11:21;100208.28;;;8.33;47.22
51603;BME280;37954;51.980;5.850;2023-03-14T16:15:33;100238.28;;;8.42;46.92
51603;BME280;37954;51.980;5.850;2023-03-14T16:19:45;100249.78;;;8.18;46.48
51603;BME280;37954;51.980;5.850;2023-03-14T16:23:56;100234.63;;;8.12;46.56
51603;BME280;37954;51.980;5.850;2023-03-14T16:28:08;100259.19;;;8.02;46.49
51603;BME280;37954;51.980;5.850;2023-03-14T16:32:22;100270.72;;;8.02;46.63
51603;BME280;37954;51.980;5.850;2023-03-14T16:36:34;100270.53;;;7.97;47.04
51603;BME280;37954;51.980;5.850;2023-03-14T16:40:58;100281.50;;;7.89;47.24
51603;BME280;37954;51.980;5.850;2023-03-14T16:45:10;100310.66;;;7.97;47.25
51603;BME280;37954;51.980;5.850;2023-03-14T16:49:22;100314.03;;;7.86;47.31
51603;BME280;37954;51.980;5.850;2023-03-14T16:53:34;100305.25;;;7.79;47.92
51603;BME280;37954;51.980;5.850;2023-03-14T16:57:46;100326.25;;;7.76;47.63
51603;BME280;37954;51.980;5.850;2023-03-14T17:01:58;100338.25;;;7.60;47.47
51603;BME280;37954;51.980;5.850;2023-03-14T17:06:10;100345.81;;;7.63;47.79
51603;BME280;37954;51.980;5.850;2023-03-14T17:10:23;100344.91;;;7.44;47.57
51603;BME280;37954;51.980;5.850;2023-03-14T17:14:35;100353.16;;;7.36;48.13
51603;BME280;37954;51.980;5.850;2023-03-14T17:18:46;100373.22;;;7.52;48.54
51603;BME280;37954;51.980;5.850;2023-03-14T17:22:58;100375.50;;;7.48;48.41
51603;BME280;37954;51.980;5.850;2023-03-14T17:27:10;100380.44;;;7.51;48.52
51603;BME280;37954;51.980;5.850;2023-03-14T17:31:24;100380.63;;;7.50;49.04
51603;BME280;37954;51.980;5.850;2023-03-14T17:35:36;100370.81;;;7.37;49.27
51603;BME280;37954;51.980;5.850;2023-03-14T17:39:47;100400.22;;;7.37;49.73
51603;BME280;37954;51.980;5.850;2023-03-14T17:43:59;100427.59;;;7.26;50.40
51603;BME280;37954;51.980;5.850;2023-03-14T17:48:11;100409.34;;;7.03;50.74
51603;BME280;37954;51.980;5.850;2023-03-14T17:52:23;100433.38;;;7.10;51.04
51603;BME280;37954;51.980;5.850;2023-03-14T17:56:34;100431.94;;;6.94;51.56
51603;BME280;37954;51.980;5.850;2023-03-14T18:00:46;100445.09;;;6.89;51.88
51603;BME280;37954;51.980;5.850;2023-03-14T18:04:58;100446.72;;;6.77;52.06
51603;BME280;37954;51.980;5.850;2023-03-14T18:09:09;100435.25;;;6.56;52.65
51603;BME280;37954;51.980;5.850;2023-03-14T18:13:21;100464.19;;;6.53;52.57
51603;BME280;37954;51.980;5.850;2023-03-14T18:17:33;100461.50;;;6.46;52.39
51603;BME280;37954;51.980;5.850;2023-03-14T18:21:44;100459.22;;;6.30;52.90
51603;BME280;37954;51.980;5.850;2023-03-14T18:25:58;100487.13;;;6.34;52.76
51603;BME280;37954;51.980;5.850;2023-03-14T18:30:11;100497.78;;;6.21;53.06
51603;BME280;37954;51.980;5.850;2023-03-14T18:34:25;100505.50;;;6.09;53.06
51603;BME280;37954;51.980;5.850;2023-03-14T18:38:37;100514.94;;;6.05;53.56
51603;BME280;37954;51.980;5.850;2023-03-14T18:42:54;100535.03;;;6.08;53.47
51603;BME280;37954;51.980;5.850;2023-03-14T18:47:05;100520.19;;;5.92;54.05
51603;BME280;37954;51.980;5.850;2023-03-14T18:51:17;100549.34;;;5.93;53.78
51603;BME280;37954;51.980;5.850;2023-03-14T18:55:29;100558.97;;;5.94;54.33
51603;BME280;37954;51.980;5.850;2023-03-14T18:59:41;100541.00;;;5.75;54.73
51603;BME280;37954;51.980;5.850;2023-03-14T19:03:52;100546.69;;;5.66;55.30
51603;BME280;37954;51.980;5.850;2023-03-14T19:08:04;100566.94;;;5.60;55.24
51603;BME280;37954;51.980;5.850;2023-03-14T19:12:16;100589.66;;;5.56;55.22
51603;BME280;37954;51.980;5.850;2023-03-14T19:16:29;100593.13;;;5.50;55.92
51603;BME280;37954;51.980;5.850;2023-03-14T19:20:41;100568.34;;;5.28;56.69
51603;BME280;37954;51.980;5.850;2023-03-14T19:24:53;100572.22;;;5.25;56.83
51603;BME280;37954;51.980;5.850;2023-03-14T19:29:06;100589.22;;;5.24;57.19
51603;BME280;37954;51.980;5.850;2023-03-14T19:33:19;100574.16;;;5.10;57.43
51603;BME280;37954;51.980;5.850;2023-03-14T19:37:30;100578.00;;;5.08;57.35
51603;BME280;37954;51.980;5.850;2023-03-14T19:41:42;100585.97;;;5.01;57.33
51603;BME280;37954;51.980;5.850;2023-03-14T19:45:54;100589.00;;;4.98;58.20
51603;BME280;37954;51.980;5.850;2023-03-14T19:50:06;100582.50;;;4.86;58.31
51603;BME280;37954;51.980;5.850;2023-03-14T19:54:19;100585.94;;;4.80;58.85
51603;BME280;37954;51.980;5.850;2023-03-14T19:58:33;100601.91;;;4.80;59.04
51603;BME280;37954;51.980;5.850;2023-03-14T20:02:45;100586.84;;;4.66;59.79
51603;BME280;37954;51.980;5.850;2023-03-14T20:06:57;100591.25;;;4.59;59.90
51603;BME280;37954;51.980;5.850;2023-03-14T20:11:09;100601.78;;;4.52;60.69
51603;BME280;37954;51.980;5.850;2023-03-14T20:15:21;100599.06;;;4.45;61.10
51603;BME280;37954;51.980;5.850;2023-03-14T20:19:33;100615.03;;;4.45;61.49
51603;BME280;37954;51.980;5.850;2023-03-14T20:23:44;100619.97;;;4.34;61.79
51603;BME280;37954;51.980;5.850;2023-03-14T20:27:56;100613.31;;;4.23;62.16
51603;BME280;37954;51.980;5.850;2023-03-14T20:32:08;100619.63;;;4.22;63.02
51603;BME280;37954;51.980;5.850;2023-03-14T20:36:20;100632.91;;;4.37;63.67
51603;BME280;37954;51.980;5.850;2023-03-14T20:40:32;100628.41;;;4.37;64.07
51603;BME280;37954;51.980;5.850;2023-03-14T20:44:44;100648.19;;;4.64;65.06
51603;BME280;37954;51.980;5.850;2023-03-14T20:48:56;100637.38;;;4.66;65.13
51603;BME280;37954;51.980;5.850;2023-03-14T20:53:07;100657.41;;;4.83;64.75
51603;BME280;37954;51.980;5.850;2023-03-14T20:57:19;100660.13;;;4.89;65.15
51603;BME280;37954;51.980;5.850;2023-03-14T21:01:31;100640.88;;;4.87;65.39
51603;BME280;37954;51.980;5.850;2023-03-14T21:05:45;100676.13;;;5.11;65.58
51603;BME280;37954;51.980;5.850;2023-03-14T21:09:57;100673.09;;;5.14;65.68
51603;BME280;37954;51.980;5.850;2023-03-14T21:14:09;100675.88;;;5.06;65.32
51603;BME280;37954;51.980;5.850;2023-03-14T21:18:21;100668.97;;;5.11;65.54
51603;BME280;37954;51.980;5.850;2023-03-14T21:22:36;100677.97;;;5.10;65.87
51603;BME280;37954;51.980;5.850;2023-03-14T21:26:48;100674.53;;;4.95;65.78
51603;BME280;37954;51.980;5.850;2023-03-14T21:31:07;100678.28;;;5.01;66.28
51603;BME280;37954;51.980;5.850;2023-03-14T21:35:20;100691.97;;;4.98;66.26
51603;BME280;37954;51.980;5.850;2023-03-14T21:39:31;100677.88;;;4.82;66.65
51603;BME280;37954;51.980;5.850;2023-03-14T21:43:43;100687.53;;;4.83;67.70
51603;BME280;37954;51.980;5.850;2023-03-14T21:47:57;100694.22;;;4.79;68.45
51603;BME280;37954;51.980;5.850;2023-03-14T21:52:11;100682.78;;;4.64;69.42
51603;BME280;37954;51.980;5.850;2023-03-14T21:56:23;100673.88;;;4.57;70.75
51603;BME280;37954;51.980;5.850;2023-03-14T22:00:37;100670.41;;;4.57;71.51
51603;BME280;37954;51.980;5.850;2023-03-14T22:04:49;100660.13;;;4.53;72.16
51603;BME280;37954;51.980;5.850;2023-03-14T22:09:01;100667.09;;;4.54;71.93
51603;BME280;37954;51.980;5.850;2023-03-14T22:13:14;100679.66;;;4.61;72.32
51603;BME280;37954;51.980;5.850;2023-03-14T22:17:26;100671.41;;;4.55;72.80
51603;BME280;37954;51.980;5.850;2023-03-14T22:21:37;100685.06;;;4.67;72.95
51603;BME280;37954;51.980;5.850;2023-03-14T22:25:49;100678.09;;;4.66;73.30
51603;BME280;37954;51.980;5.850;2023-03-14T22:30:02;100665.25;;;4.55;74.13
51603;BME280;37954;51.980;5.850;2023-03-14T22:34:14;100679.47;;;4.62;74.11
51603;BME280;37954;51.980;5.850;2023-03-14T22:38:26;100666.28;;;4.39;75.35
51603;BME280;37954;51.980;5.850;2023-03-14T22:42:38;100677.28;;;4.51;76.20
51603;BME280;37954;51.980;5.850;2023-03-14T22:46:50;100703.31;;;4.55;76.55
51603;BME280;37954;51.980;5.850;2023-03-14T22:51:06;100692.13;;;4.60;76.88
51603;BME280;37954;51.980;5.850;2023-03-14T22:55:18;100707.72;;;4.63;76.55
51603;BME280;37954;51.980;5.850;2023-03-14T22:59:30;100712.41;;;4.61;77.14
51603;BME280;37954;51.980;5.850;2023-03-14T23:03:41;100732.75;;;4.69;77.39
51603;BME280;37954;51.980;5.850;2023-03-14T23:07:53;100752.59;;;4.66;78.60
51603;BME280;37954;51.980;5.850;2023-03-14T23:12:05;100761.56;;;4.50;79.11
51603;BME280;37954;51.980;5.850;2023-03-14T23:16:17;100752.84;;;4.27;79.35
51603;BME280;37954;51.980;5.850;2023-03-14T23:20:33;100771.16;;;4.22;80.39
51603;BME280;37954;51.980;5.850;2023-03-14T23:24:45;100768.03;;;4.18;80.65
51603;BME280;37954;51.980;5.850;2023-03-14T23:28:59;100747.22;;;4.07;80.81
51603;BME280;37954;51.980;5.850;2023-03-14T23:33:10;100760.97;;;4.11;81.79
51603;BME280;37954;51.980;5.850;2023-03-14T23:37:22;100787.13;;;4.22;81.55
51603;BME280;37954;51.980;5.850;2023-03-14T23:41:36;100772.09;;;4.14;82.20